Time;durP1;ratioP1;P1;durP2;ratioP2;P2;SDS_P1;SDS_P2;PMS_P1;PMS_P2;Temp;Humidity;BMP_temperature;BMP_pressure;BME280_temperature;BME280_humidity;BME280_pressure;Samples;Min_cycle;Max_cycle;Signal;HPM_P1;HPM_P2
2022/10/30 00:00:33;;;;;;;18.85;5.32;;;13.30;99.90;;;;;;5091284;28;20044;-70
2022/10/30 00:02:59;;;;;;;11.23;4.80;;;13.20;99.90;;;;;;5091623;28;20051;-70
2022/10/30 00:05:26;;;;;;;14.88;5.43;;;13.20;99.90;;;;;;5091713;28;20024;-70
2022/10/30 00:07:54;;;;;;;14.05;4.68;;;13.20;99.90;;;;;;5091175;28;20036;-70
2022/10/30 00:10:19;;;;;;;16.30;5.20;;;13.20;99.90;;;;;;5089875;28;20032;-70
2022/10/30 00:12:45;;;;;;;10.32;4.25;;;13.20;99.90;;;;;;5091453;28;20453;-70
2022/10/30 00:15:11;;;;;;;9.70;3.85;;;13.20;99.90;;;;;;5091480;28;20036;-70
2022/10/30 00:17:36;;;;;;;12.15;4.20;;;13.20;99.90;;;;;;5091222;28;20069;-69
2022/10/30 00:20:02;;;;;;;9.68;4.05;;;13.20;99.90;;;;;;5089467;28;20103;-69
2022/10/30 00:22:28;;;;;;;10.07;4.35;;;13.20;99.90;;;;;;5091879;28;20416;-69
2022/10/30 00:24:54;;;;;;;11.93;5.05;;;13.20;99.90;;;;;;5090615;28;20020;-70
2022/10/30 00:27:19;;;;;;;7.97;3.80;;;13.10;99.90;;;;;;5091409;28;20078;-69
2022/10/30 00:29:45;;;;;;;9.23;3.95;;;13.20;99.90;;;;;;5090797;28;20042;-69
2022/10/30 00:32:10;;;;;;;11.63;4.80;;;13.10;99.90;;;;;;5089653;28;20385;-69
2022/10/30 00:34:36;;;;;;;7.88;5.00;;;13.10;99.90;;;;;;5091272;28;20052;-69
2022/10/30 00:37:01;;;;;;;7.68;4.50;;;13.10;99.90;;;;;;5090439;28;20275;-69
2022/10/30 00:39:27;;;;;;;10.77;4.15;;;13.10;99.90;;;;;;5091371;28;20028;-69
2022/10/30 00:41:53;;;;;;;11.90;4.60;;;13.10;99.90;;;;;;5090838;28;20082;-70
2022/10/30 00:44:45;;;;;;;14.10;5.95;;;13.10;99.90;;;;;;5089111;28;20066;-69
2022/10/30 00:47:23;;;;;;;12.93;5.80;;;13.10;99.90;;;;;;5091736;28;20040;-69
2022/10/30 00:49:58;;;;;;;11.40;4.90;;;13.10;99.90;;;;;;5090528;28;20050;-69
2022/10/30 00:52:28;;;;;;;11.35;4.47;;;13.20;99.90;;;;;;5088954;28;20064;-69
2022/10/30 00:54:56;;;;;;;11.50;3.95;;;13.20;99.90;;;;;;5088368;28;20100;-69
2022/10/30 00:57:22;;;;;;;15.40;4.47;;;13.20;99.90;;;;;;5091429;28;20115;-69
2022/10/30 00:59:48;;;;;;;10.27;4.63;;;13.20;99.90;;;;;;5090206;28;20020;-69
2022/10/30 01:02:15;;;;;;;10.50;4.30;;;13.10;99.90;;;;;;5073034;28;20415;-70
2022/10/30 01:04:43;;;;;;;11.60;4.35;;;13.10;99.90;;;;;;5088454;28;20024;-70
2022/10/30 01:07:11;;;;;;;11.70;4.78;;;13.10;99.90;;;;;;5090125;28;20040;-70
2022/10/30 01:09:39;;;;;;;15.52;4.85;;;13.10;99.90;;;;;;5088847;28;20089;-70
2022/10/30 01:12:05;;;;;;;9.23;4.60;;;13.10;99.90;;;;;;5089771;28;20105;-69
2022/10/30 01:14:32;;;;;;;11.77;4.22;;;13.10;99.90;;;;;;5089676;28;20103;-69
2022/10/30 01:17:10;;;;;;;13.95;5.18;;;13.00;99.90;;;;;;5090442;28;20070;-69
2022/10/30 01:19:42;;;;;;;12.45;4.60;;;13.00;99.90;;;;;;5090740;28;20358;-70
2022/10/30 01:22:26;;;;;;;10.98;4.47;;;13.00;99.90;;;;;;5086337;28;20024;-69
2022/10/30 01:25:10;;;;;;;8.45;4.28;;;12.90;99.90;;;;;;5089955;28;20024;-69
2022/10/30 01:28:04;;;;;;;12.57;4.60;;;12.90;99.90;;;;;;5083490;28;20040;-69
2022/10/30 01:30:41;;;;;;;11.32;4.63;;;12.90;99.90;;;;;;5088677;28;20028;-69
2022/10/30 01:33:22;;;;;;;11.98;5.90;;;12.90;99.90;;;;;;5086752;28;20484;-70
2022/10/30 01:36:07;;;;;;;12.80;5.13;;;12.90;99.90;;;;;;5087833;28;20046;-69
2022/10/30 01:38:39;;;;;;;11.05;4.53;;;12.90;99.90;;;;;;5090176;28;20431;-70
2022/10/30 01:41:05;;;;;;;16.10;5.82;;;13.00;99.90;;;;;;5089589;28;20115;-70
2022/10/30 01:43:32;;;;;;;14.63;5.15;;;13.10;99.90;;;;;;5088858;28;20091;-69
2022/10/30 01:46:13;;;;;;;14.35;4.93;;;13.10;99.90;;;;;;5082064;28;20052;-70
2022/10/30 01:48:56;;;;;;;11.10;4.78;;;13.10;99.90;;;;;;5090095;28;20036;-70
2022/10/30 01:51:42;;;;;;;9.73;5.20;;;13.10;99.90;;;;;;5090524;28;20024;-69
2022/10/30 01:54:49;;;;;;;12.73;4.65;;;13.00;99.90;;;;;;5089155;28;20019;-70
2022/10/30 01:57:47;;;;;;;10.95;4.47;;;13.00;99.90;;;;;;5087571;28;20161;-70
2022/10/30 02:00:15;;;;;;;11.25;5.00;;;12.90;99.90;;;;;;5054753;28;20115;-69
2022/10/30 02:02:41;;;;;;;14.77;5.45;;;12.90;99.90;;;;;;5092882;28;20081;-69
2022/10/30 02:05:10;;;;;;;16.02;4.90;;;13.00;99.90;;;;;;5093680;28;20032;-70
2022/10/30 02:07:36;;;;;;;6.68;4.10;;;13.00;99.90;;;;;;5094469;28;20028;-70
2022/10/30 02:10:03;;;;;;;11.27;4.22;;;13.00;99.90;;;;;;5091166;28;20043;-69
2022/10/30 02:12:28;;;;;;;10.43;4.57;;;13.00;99.90;;;;;;5094336;28;20028;-69
2022/10/30 02:14:59;;;;;;;13.65;4.78;;;13.00;99.90;;;;;;5093276;28;20499;-69
2022/10/30 02:17:24;;;;;;;;;;;13.00;99.90;;;;;;5094677;28;20032;-69
2022/10/30 02:19:50;;;;;;;10.57;5.35;;;12.90;99.90;;;;;;5092385;28;19911;-68
2022/10/30 02:22:16;;;;;;;11.50;4.63;;;12.90;99.90;;;;;;5092075;28;20032;-69
2022/10/30 02:24:42;;;;;;;11.30;4.88;;;12.90;99.90;;;;;;5092611;28;20377;-69
2022/10/30 02:27:08;;;;;;;18.95;5.35;;;12.90;99.90;;;;;;5093267;28;20028;-69
2022/10/30 02:29:34;;;;;;;12.85;4.90;;;12.90;99.90;;;;;;5094078;28;20333;-69
2022/10/30 02:31:59;;;;;;;10.57;4.68;;;12.90;99.90;;;;;;5093275;28;20116;-68
2022/10/30 02:34:25;;;;;;;11.35;4.72;;;12.90;99.90;;;;;;5091376;28;20055;-69
2022/10/30 02:36:51;;;;;;;13.45;5.20;;;12.90;99.90;;;;;;5092896;28;20032;-69
2022/10/30 02:39:18;;;;;;;15.95;5.43;;;12.90;99.90;;;;;;5093578;28;20039;-69
2022/10/30 02:41:44;;;;;;;11.65;5.03;;;12.90;99.90;;;;;;5087434;28;20039;-68
2022/10/30 02:44:10;;;;;;;15.65;5.70;;;12.90;99.90;;;;;;5093460;28;20119;-68
2022/10/30 02:46:35;;;;;;;19.50;6.32;;;12.90;99.90;;;;;;5092470;28;20101;-68
2022/10/30 02:49:01;;;;;;;15.90;5.95;;;12.90;99.90;;;;;;5091790;28;20020;-69
2022/10/30 02:51:27;;;;;;;14.20;5.65;;;12.90;99.90;;;;;;5093683;28;20377;-69
2022/10/30 02:53:52;;;;;;;8.25;4.63;;;12.90;99.90;;;;;;5092820;28;20032;-69
2022/10/30 02:56:18;;;;;;;10.00;5.90;;;12.80;99.90;;;;;;5080469;28;20075;-69
2022/10/30 02:58:44;;;;;;;10.38;5.50;;;12.80;99.90;;;;;;5087716;28;20073;-69
2022/10/30 03:01:13;;;;;;;11.95;5.47;;;12.80;99.90;;;;;;5077507;28;20043;-68
2022/10/30 03:03:39;;;;;;;20.50;6.55;;;12.70;99.90;;;;;;5092966;28;20028;-68
2022/10/30 03:06:07;;;;;;;14.15;6.25;;;12.70;99.90;;;;;;5091328;28;20072;-69
2022/10/30 03:08:33;;;;;;;18.45;7.15;;;12.70;99.90;;;;;;5092640;28;20111;-69
2022/10/30 03:11:07;;;;;;;16.02;6.43;;;12.70;99.90;;;;;;5089009;28;20055;-70
2022/10/30 03:13:34;;;;;;;15.15;6.07;;;12.70;99.90;;;;;;5091777;28;20107;-69
2022/10/30 03:16:05;;;;;;;13.73;6.00;;;12.70;99.90;;;;;;5086882;28;20035;-69
2022/10/30 03:18:32;;;;;;;10.90;5.60;;;12.60;99.90;;;;;;5092054;28;20070;-69
2022/10/30 03:20:59;;;;;;;12.88;6.43;;;12.60;99.90;;;;;;5090359;28;20058;-68
2022/10/30 03:23:25;;;;;;;10.45;5.60;;;12.60;99.90;;;;;;5074630;28;20373;-69
2022/10/30 03:25:55;;;;;;;12.13;5.63;;;12.60;99.90;;;;;;5090784;28;20051;-69
2022/10/30 03:28:22;;;;;;;14.05;6.00;;;12.50;99.90;;;;;;5092620;28;20101;-69
2022/10/30 03:30:48;;;;;;;14.68;5.88;;;12.50;99.90;;;;;;5089531;28;20416;-69
2022/10/30 03:33:14;;;;;;;17.15;6.43;;;12.50;99.90;;;;;;5087973;28;20028;-69
2022/10/30 03:35:41;;;;;;;12.40;5.82;;;12.40;99.90;;;;;;5078821;28;20369;-69
2022/10/30 03:38:07;;;;;;;9.70;5.25;;;12.40;99.90;;;;;;5066298;28;20486;-69
2022/10/30 03:40:33;;;;;;;12.93;5.90;;;12.40;99.90;;;;;;5066786;28;20033;-69
2022/10/30 03:42:58;;;;;;;17.65;6.30;;;12.40;99.90;;;;;;5082974;28;20365;-69
2022/10/30 03:45:24;;;;;;;17.65;6.03;;;12.40;99.90;;;;;;5090847;28;20032;-70
2022/10/30 03:47:49;;;;;;;16.33;5.72;;;12.40;99.90;;;;;;5091114;28;20036;-69
2022/10/30 03:50:15;;;;;;;13.77;5.03;;;12.40;99.90;;;;;;5090684;28;20071;-70
2022/10/30 03:52:40;;;;;;;10.38;5.40;;;12.30;99.90;;;;;;5092073;28;20423;-70
2022/10/30 03:55:06;;;;;;;13.75;5.15;;;12.30;99.90;;;;;;5090604;28;20028;-69
2022/10/30 03:57:36;;;;;;;10.05;4.80;;;12.30;99.90;;;;;;5091435;28;20392;-69
2022/10/30 04:00:01;;;;;;;11.25;5.20;;;12.30;99.90;;;;;;5090283;28;20507;-71
2022/10/30 04:02:27;;;;;;;10.88;4.90;;;12.20;99.90;;;;;;5071697;28;20044;-70
2022/10/30 04:04:52;;;;;;;9.35;4.60;;;12.20;99.90;;;;;;5085414;28;20039;-69
2022/10/30 04:07:18;;;;;;;12.60;5.57;;;12.20;99.90;;;;;;5069963;28;20042;-69
2022/10/30 04:09:43;;;;;;;16.33;5.00;;;12.20;99.90;;;;;;5062973;28;20028;-69
2022/10/30 04:12:09;;;;;;;20.33;5.93;;;12.20;99.90;;;;;;5091470;28;20170;-69
2022/10/30 04:14:34;;;;;;;15.45;5.40;;;12.40;99.90;;;;;;5089722;28;20036;-70
2022/10/30 04:17:00;;;;;;;19.23;5.93;;;12.50;99.90;;;;;;5090504;28;20077;-69
2022/10/30 04:19:25;;;;;;;13.20;5.18;;;12.70;99.90;;;;;;5091827;28;20059;-69
2022/10/30 04:21:51;;;;;;;15.32;5.15;;;12.70;99.90;;;;;;5091328;28;20024;-70
2022/10/30 04:24:17;;;;;;;14.18;4.72;;;12.70;99.90;;;;;;5090952;28;20168;-70
2022/10/30 04:26:43;;;;;;;15.75;5.18;;;12.70;99.90;;;;;;5087370;28;20036;-68
2022/10/30 04:29:09;;;;;;;15.40;4.85;;;12.70;99.90;;;;;;5090830;28;20107;-70
2022/10/30 04:31:35;;;;;;;10.45;3.88;;;12.60;99.90;;;;;;5091395;28;20134;-70
2022/10/30 04:34:00;;;;;;;24.85;5.15;;;12.50;99.90;;;;;;5093288;28;20051;-69
2022/10/30 04:36:31;;;;;;;9.98;4.80;;;12.40;99.90;;;;;;5091445;28;20039;-70
2022/10/30 04:38:57;;;;;;;11.90;5.72;;;12.40;99.90;;;;;;5089297;28;20028;-68
2022/10/30 04:41:23;;;;;;;15.07;4.93;;;12.30;99.90;;;;;;5091693;28;20146;-68
2022/10/30 04:43:49;;;;;;;17.77;5.88;;;12.30;99.90;;;;;;5089518;28;20103;-68
2022/10/30 04:46:16;;;;;;;10.15;5.00;;;12.20;99.90;;;;;;5088042;28;20024;-69
2022/10/30 04:48:42;;;;;;;12.93;5.25;;;12.20;99.90;;;;;;5080331;28;20024;-68
2022/10/30 04:51:08;;;;;;;10.65;5.53;;;12.10;99.90;;;;;;5086680;28;20055;-69
2022/10/30 04:53:34;;;;;;;11.65;4.72;;;12.10;99.90;;;;;;5091370;28;20036;-69
2022/10/30 04:55:59;;;;;;;9.85;4.82;;;12.10;99.90;;;;;;5089846;28;20031;-69
2022/10/30 04:58:25;;;;;;;14.38;5.43;;;12.00;99.90;;;;;;5090887;28;20032;-69
2022/10/30 05:00:50;;;;;;;11.80;5.80;;;12.00;99.90;;;;;;5089303;28;20040;-69
2022/10/30 05:03:23;;;;;;;14.10;4.93;;;11.90;99.90;;;;;;5090353;28;20749;-69
2022/10/30 05:06:02;;;;;;;10.77;5.22;;;11.80;99.90;;;;;;5087759;28;20028;-68
2022/10/30 05:08:28;;;;;;;11.07;4.95;;;11.80;99.90;;;;;;5095277;28;20032;-69
2022/10/30 05:10:55;;;;;;;14.70;5.45;;;11.70;99.90;;;;;;5089327;28;20024;-68
2022/10/30 05:13:21;;;;;;;10.07;4.50;;;11.70;99.90;;;;;;5089517;28;20043;-69
2022/10/30 05:15:47;;;;;;;9.30;4.90;;;11.60;99.90;;;;;;5087080;28;20050;-68
2022/10/30 05:18:13;;;;;;;12.07;5.25;;;11.60;99.90;;;;;;5088111;28;20115;-69
2022/10/30 05:20:38;;;;;;;12.18;4.50;;;11.60;99.90;;;;;;5083020;28;20028;-70
2022/10/30 05:23:04;;;;;;;11.45;4.95;;;11.60;99.90;;;;;;5081689;28;20461;-70
2022/10/30 05:25:30;;;;;;;9.30;4.82;;;11.60;99.90;;;;;;5081768;28;20097;-70
2022/10/30 05:28:04;;;;;;;10.63;5.25;;;11.40;99.90;;;;;;5083234;28;20097;-70
2022/10/30 05:30:31;;;;;;;15.40;6.55;;;11.40;99.90;;;;;;5065718;28;20024;-70
2022/10/30 05:33:01;;;;;;;11.38;4.57;;;11.40;99.90;;;;;;5079531;28;20032;-70
2022/10/30 05:35:27;;;;;;;10.15;4.80;;;11.30;99.90;;;;;;5083198;28;20024;-69
2022/10/30 05:37:53;;;;;;;11.73;5.25;;;11.30;99.90;;;;;;5085831;28;20624;-67
2022/10/30 05:40:19;;;;;;;13.13;5.78;;;11.30;99.90;;;;;;5086868;28;20021;-69
2022/10/30 05:42:46;;;;;;;11.60;5.00;;;11.30;99.90;;;;;;5086293;28;20077;-69
2022/10/30 05:45:12;;;;;;;9.98;4.75;;;11.30;99.90;;;;;;5086155;28;20031;-69
2022/10/30 05:47:37;;;;;;;15.23;5.53;;;11.30;99.90;;;;;;5086793;28;20036;-68
2022/10/30 05:50:04;;;;;;;13.75;6.35;;;11.30;99.90;;;;;;5085195;28;20096;-71
2022/10/30 05:52:30;;;;;;;15.20;6.20;;;11.30;99.90;;;;;;5084015;28;20138;-70
2022/10/30 05:54:55;;;;;;;8.70;4.82;;;11.20;99.90;;;;;;5071720;28;20482;-71
2022/10/30 05:57:21;;;;;;;11.82;4.82;;;11.20;99.90;;;;;;5088938;28;20131;-75
2022/10/30 05:59:47;;;;;;;9.00;4.95;;;11.20;99.90;;;;;;5096317;28;20020;-77
2022/10/30 06:02:12;;;;;;;12.93;5.38;;;11.20;99.90;;;;;;5107580;28;20048;-74
2022/10/30 06:04:38;;;;;;;14.45;5.03;;;11.10;99.90;;;;;;5106624;28;20088;-78
2022/10/30 06:07:04;;;;;;;14.73;6.38;;;11.20;99.90;;;;;;5100148;28;20641;-82
2022/10/30 06:09:29;;;;;;;11.88;5.60;;;11.20;99.90;;;;;;5084942;28;20017;-77
2022/10/30 06:11:55;;;;;;;13.20;5.68;;;11.30;99.90;;;;;;5064740;28;20028;-77
2022/10/30 06:14:21;;;;;;;12.27;5.32;;;11.30;99.90;;;;;;5093128;28;20028;-79
2022/10/30 06:16:48;;;;;;;11.98;5.30;;;11.20;99.90;;;;;;5094187;28;20028;-77
2022/10/30 06:19:14;;;;;;;16.42;6.03;;;11.30;99.90;;;;;;5095997;28;20149;-76
2022/10/30 06:21:39;;;;;;;11.00;4.80;;;11.30;99.90;;;;;;5097317;28;20469;-75
2022/10/30 06:24:05;;;;;;;16.17;5.47;;;11.40;99.90;;;;;;5098694;28;20568;-75
2022/10/30 06:26:31;;;;;;;14.15;5.45;;;11.40;99.90;;;;;;5094717;28;20373;-77
2022/10/30 06:28:56;;;;;;;9.98;4.82;;;11.40;99.90;;;;;;5093341;28;20161;-75
2022/10/30 06:31:22;;;;;;;12.15;5.72;;;11.40;99.90;;;;;;5084795;28;20035;-78
2022/10/30 06:34:07;;;;;;;13.35;5.22;;;11.40;99.90;;;;;;5050512;27;1996832;-73
2022/10/30 06:36:33;;;;;;;13.90;5.63;;;11.40;99.90;;;;;;5095159;28;20032;-74
2022/10/30 06:38:59;;;;;;;12.23;5.18;;;11.40;99.90;;;;;;5104718;28;20024;-74
2022/10/30 06:41:24;;;;;;;19.17;5.22;;;11.40;99.90;;;;;;5105693;28;20026;-74
2022/10/30 06:43:50;;;;;;;10.38;5.45;;;11.40;99.90;;;;;;5106776;28;20427;-76
2022/10/30 06:46:15;;;;;;;12.02;5.00;;;11.40;99.90;;;;;;5106143;28;20106;-74
2022/10/30 06:48:41;;;;;;;11.35;4.82;;;11.50;99.90;;;;;;5108381;28;20024;-74
2022/10/30 06:51:07;;;;;;;16.90;6.75;;;11.50;99.90;;;;;;5088342;28;20036;-81
2022/10/30 06:53:32;;;;;;;16.67;5.32;;;11.50;99.90;;;;;;5108421;28;20023;-79
2022/10/30 06:56:00;;;;;;;11.68;5.63;;;11.50;99.90;;;;;;5105477;28;20033;-80
2022/10/30 06:58:26;;;;;;;12.70;5.70;;;11.50;99.90;;;;;;5105759;28;20035;-68
2022/10/30 07:00:52;;;;;;;15.93;5.40;;;11.50;99.90;;;;;;5096390;28;20036;-73
2022/10/30 07:03:18;;;;;;;15.90;6.22;;;11.60;99.90;;;;;;5107644;28;20039;-68
2022/10/30 07:05:43;;;;;;;12.82;5.18;;;11.70;99.90;;;;;;5106914;28;20030;-69
2022/10/30 07:08:09;;;;;;;10.70;5.40;;;11.70;99.90;;;;;;5107365;28;20035;-69
2022/10/30 07:10:35;;;;;;;11.68;5.88;;;11.80;99.90;;;;;;5105688;28;20404;-76
2022/10/30 07:13:00;;;;;;;10.25;5.05;;;11.90;99.90;;;;;;5106156;28;20476;-76
2022/10/30 07:15:26;;;;;;;15.80;5.72;;;11.90;99.90;;;;;;5103908;28;20491;-77
2022/10/30 07:18:00;;;;;;;9.20;5.22;;;11.90;99.90;;;;;;5104712;28;20034;-75
2022/10/30 07:20:28;;;;;;;16.15;5.90;;;12.00;99.90;;;;;;5104971;28;20436;-76
2022/10/30 07:22:53;;;;;;;7.53;5.20;;;12.10;99.90;;;;;;5088851;28;20023;-78
2022/10/30 07:25:19;;;;;;;8.65;5.20;;;12.10;99.90;;;;;;5103140;28;20085;-77
2022/10/30 07:27:50;;;;;;;12.18;5.60;;;12.10;99.90;;;;;;5106188;28;20488;-73
2022/10/30 07:30:17;;;;;;;16.60;6.07;;;12.10;99.90;;;;;;5107797;28;20051;-81
2022/10/30 07:32:43;;;;;;;14.63;5.88;;;12.20;99.90;;;;;;5107012;28;20539;-70
2022/10/30 07:35:11;;;;;;;11.10;5.10;;;12.30;99.90;;;;;;5107133;28;20051;-73
2022/10/30 07:37:38;;;;;;;14.30;5.70;;;12.30;99.90;;;;;;5107625;28;20373;-73
2022/10/30 07:40:05;;;;;;;11.82;5.22;;;12.40;99.90;;;;;;5105487;28;20038;-72
2022/10/30 07:42:32;;;;;;;12.55;5.72;;;12.50;99.90;;;;;;5106738;28;20035;-68
2022/10/30 07:44:57;;;;;;;19.10;6.07;;;12.50;99.90;;;;;;5095707;28;20461;-68
2022/10/30 07:47:23;;;;;;;15.32;5.60;;;12.70;99.90;;;;;;5093566;28;20039;-68
2022/10/30 07:49:48;;;;;;;11.77;6.20;;;12.80;99.90;;;;;;5091632;28;20028;-67
2022/10/30 07:52:14;;;;;;;11.05;5.45;;;12.90;99.90;;;;;;5092537;28;20051;-68
2022/10/30 07:54:40;;;;;;;13.35;5.20;;;13.00;99.90;;;;;;5093373;28;20119;-68
2022/10/30 07:57:05;;;;;;;10.85;5.57;;;13.20;99.90;;;;;;5097695;28;20219;-69
2022/10/30 07:59:31;;;;;;;18.55;5.82;;;13.30;99.90;;;;;;5095023;28;20036;-68
2022/10/30 08:01:56;;;;;;;14.45;5.70;;;13.40;99.90;;;;;;5092893;28;20017;-68
2022/10/30 08:04:22;;;;;;;19.80;6.18;;;13.50;99.90;;;;;;5091757;28;20422;-68
2022/10/30 08:06:48;;;;;;;12.82;6.03;;;13.70;99.90;;;;;;5092455;28;20028;-68
2022/10/30 08:09:13;;;;;;;12.50;5.85;;;13.80;99.90;;;;;;5092188;28;20336;-69
2022/10/30 08:11:39;;;;;;;16.80;5.47;;;13.80;99.90;;;;;;5093105;28;20028;-69
2022/10/30 08:14:04;;;;;;;14.45;5.53;;;14.00;99.90;;;;;;5090079;28;20044;-69
2022/10/30 08:16:30;;;;;;;9.23;5.10;;;14.10;99.90;;;;;;5092482;28;20461;-69
2022/10/30 08:18:55;;;;;;;16.45;6.22;;;14.20;99.90;;;;;;5091451;28;20032;-69
2022/10/30 08:21:21;;;;;;;14.25;6.70;;;14.30;99.90;;;;;;5090999;28;20016;-69
2022/10/30 08:23:47;;;;;;;13.48;6.45;;;14.40;99.90;;;;;;5092019;28;20028;-69
2022/10/30 08:26:13;;;;;;;9.75;5.55;;;14.50;99.90;;;;;;5093020;28;20103;-69
2022/10/30 08:28:38;;;;;;;13.63;5.72;;;14.60;99.90;;;;;;5092110;28;20485;-69
2022/10/30 08:31:04;;;;;;;14.65;6.05;;;14.70;99.90;;;;;;5091300;28;20022;-69
2022/10/30 08:33:30;;;;;;;9.05;5.88;;;14.80;99.90;;;;;;5093995;28;20500;-69
2022/10/30 08:35:58;;;;;;;13.48;5.82;;;14.90;99.90;;;;;;5092166;28;20358;-69
2022/10/30 08:38:24;;;;;;;10.52;5.20;;;15.00;99.90;;;;;;5093091;28;20084;-70
2022/10/30 08:40:51;;;;;;;10.07;5.00;;;15.10;99.90;;;;;;5089750;28;20103;-69
2022/10/30 08:43:17;;;;;;;11.73;5.90;;;15.20;99.90;;;;;;5092392;28;20028;-70
2022/10/30 08:45:42;;;;;;;7.93;4.75;;;15.20;99.90;;;;;;5092598;28;20358;-70
2022/10/30 08:48:11;;;;;;;8.85;5.18;;;15.30;99.90;;;;;;5092087;28;20088;-69
2022/10/30 08:50:36;;;;;;;13.23;5.53;;;15.40;99.90;;;;;;5091491;28;20101;-69
2022/10/30 08:53:04;;;;;;;11.75;5.75;;;15.50;99.90;;;;;;5090654;28;20094;-70
2022/10/30 08:55:31;;;;;;;11.45;5.35;;;15.60;99.90;;;;;;5091510;28;20035;-70
2022/10/30 08:57:56;;;;;;;11.73;5.45;;;15.70;99.90;;;;;;5091956;28;20035;-70
2022/10/30 09:00:22;;;;;;;14.57;5.95;;;15.80;99.90;;;;;;5074378;28;20035;-70
2022/10/30 09:02:48;;;;;;;8.05;4.47;;;15.90;99.90;;;;;;5091723;28;20024;-70
2022/10/30 09:05:14;;;;;;;13.98;5.47;;;16.00;99.90;;;;;;5088804;28;20375;-69
2022/10/30 09:07:39;;;;;;;12.05;5.75;;;16.10;99.90;;;;;;5092532;28;20036;-68
2022/10/30 09:10:05;;;;;;;13.23;5.15;;;16.20;99.90;;;;;;5084724;28;20720;-69
2022/10/30 09:12:31;;;;;;;16.08;5.38;;;16.40;99.90;;;;;;5091694;28;20020;-69
2022/10/30 09:14:56;;;;;;;12.13;5.65;;;16.50;99.90;;;;;;5090880;28;20051;-68
2022/10/30 09:17:22;;;;;;;15.50;5.40;;;16.60;99.90;;;;;;5090136;28;20035;-68
2022/10/30 09:19:48;;;;;;;13.85;5.47;;;16.70;99.90;;;;;;5088882;28;20473;-69
2022/10/30 09:22:13;;;;;;;12.00;6.30;;;16.80;99.90;;;;;;5091590;28;20032;-69
2022/10/30 09:24:39;;;;;;;11.98;5.57;;;16.90;99.90;;;;;;5089564;28;20103;-69
2022/10/30 09:27:05;;;;;;;12.93;5.85;;;17.10;99.90;;;;;;5090426;28;20016;-68
2022/10/30 09:29:31;;;;;;;21.05;6.60;;;17.20;99.90;;;;;;5082107;28;20089;-68
2022/10/30 09:31:59;;;;;;;13.15;5.93;;;17.30;99.90;;;;;;5080335;28;20036;-68
2022/10/30 09:34:26;;;;;;;11.32;5.15;;;17.40;99.90;;;;;;5083902;28;20028;-68
2022/10/30 09:36:51;;;;;;;13.27;5.10;;;17.50;99.90;;;;;;5090422;28;20465;-68
2022/10/30 09:39:17;;;;;;;10.48;5.35;;;17.50;99.90;;;;;;5084735;28;20086;-68
2022/10/30 09:41:57;;;;;;;13.82;4.75;;;17.60;99.90;;;;;;5089766;28;20063;-68
2022/10/30 09:45:07;;;;;;;13.00;4.82;;;17.80;99.90;;;;;;5086918;28;20028;-69
2022/10/30 09:48:01;;;;;;;13.13;5.07;;;17.90;99.90;;;;;;5087380;28;20082;-68
2022/10/30 09:50:52;;;;;;;9.75;5.30;;;18.00;99.90;;;;;;5090264;28;20024;-68
2022/10/30 09:53:34;;;;;;;10.85;4.88;;;18.10;99.90;;;;;;5081156;28;20043;-68
2022/10/30 09:56:16;;;;;;;14.60;5.47;;;18.20;99.90;;;;;;5088931;28;20569;-68
2022/10/30 09:58:48;;;;;;;18.00;5.82;;;18.40;99.90;;;;;;5081685;28;20016;-68
2022/10/30 10:01:29;;;;;;;13.85;5.75;;;18.50;99.90;;;;;;5090840;28;20088;-68
2022/10/30 10:04:25;;;;;;;14.00;6.43;;;18.60;99.90;;;;;;5072291;28;20133;-68
2022/10/30 10:06:59;;;;;;;13.00;5.15;;;18.80;99.90;;;;;;5093682;28;20027;-68
2022/10/30 10:09:28;;;;;;;14.85;6.18;;;18.90;99.90;;;;;;5089124;28;20020;-68
2022/10/30 10:12:04;;;;;;;13.82;5.72;;;19.00;99.90;;;;;;5090341;28;20027;-68
2022/10/30 10:14:36;;;;;;;10.73;5.47;;;19.10;99.90;;;;;;5088999;28;20035;-68
2022/10/30 10:17:04;;;;;;;14.15;5.35;;;19.20;99.90;;;;;;5088582;28;20056;-68
2022/10/30 10:19:38;;;;;;;17.27;5.88;;;19.30;99.90;;;;;;5084864;28;20032;-69
2022/10/30 10:22:23;;;;;;;16.42;6.07;;;19.50;99.90;;;;;;5088229;28;20027;-69
2022/10/30 10:24:49;;;;;;;14.93;5.70;;;19.60;99.90;;;;;;5082951;28;20070;-69
2022/10/30 10:27:45;;;;;;;17.95;5.88;;;19.70;99.90;;;;;;5087515;28;20043;-69
2022/10/30 10:30:19;;;;;;;12.75;5.70;;;19.80;99.90;;;;;;5087855;28;20024;-69
2022/10/30 10:33:03;;;;;;;11.65;5.20;;;19.90;99.90;;;;;;5076781;28;20056;-68
2022/10/30 10:35:40;;;;;;;17.67;6.15;;;20.00;99.90;;;;;;5063617;28;20077;-69
2022/10/30 10:38:38;;;;;;;15.35;7.10;;;20.10;99.90;;;;;;5060532;28;20025;-69
2022/10/30 10:41:32;;;;;;;18.80;8.25;;;20.20;99.90;;;;;;5067075;28;20659;-69
2022/10/30 10:44:16;;;;;;;18.70;6.68;;;20.30;99.90;;;;;;5064289;28;20029;-69
2022/10/30 10:47:05;;;;;;;10.20;5.10;;;20.40;99.90;;;;;;5058849;28;20108;-69
2022/10/30 10:49:58;;;;;;;13.48;6.03;;;20.60;99.90;;;;;;5064957;28;20023;-69
2022/10/30 10:52:36;;;;;;;15.05;6.05;;;20.60;99.90;;;;;;5067766;28;20109;-69
2022/10/30 10:55:17;;;;;;;15.35;6.00;;;20.70;99.90;;;;;;5066651;28;20115;-69
2022/10/30 10:57:44;;;;;;;10.25;5.90;;;20.80;99.90;;;;;;5066629;28;20025;-68
2022/10/30 11:00:10;;;;;;;16.15;5.60;;;21.00;99.90;;;;;;5068601;28;20032;-67
2022/10/30 11:02:51;;;;;;;14.70;5.68;;;21.10;99.90;;;;;;5062425;28;20029;-68
2022/10/30 11:05:19;;;;;;;11.15;5.97;;;21.20;99.90;;;;;;5066063;28;20389;-67
2022/10/30 11:07:47;;;;;;;11.43;5.57;;;21.20;99.90;;;;;;5066058;28;20092;-68
2022/10/30 11:10:16;;;;;;;9.32;5.53;;;21.30;99.90;;;;;;5069127;28;20428;-66
2022/10/30 11:12:42;;;;;;;15.48;5.88;;;21.40;99.90;;;;;;5059525;28;20024;-67
2022/10/30 11:15:32;;;;;;;20.20;6.68;;;21.50;99.90;;;;;;5062418;28;20550;-66
2022/10/30 11:17:59;;;;;;;10.65;5.07;;;21.70;99.90;;;;;;5063805;28;20072;-67
2022/10/30 11:20:38;;;;;;;10.10;4.75;;;21.70;99.90;;;;;;5073550;28;20028;-66
2022/10/30 11:23:30;;;;;;;13.57;5.55;;;21.70;99.90;;;;;;5067564;28;20028;-66
2022/10/30 11:25:55;;;;;;;17.67;7.63;;;21.90;99.90;;;;;;5070483;28;20031;-66
2022/10/30 11:29:02;;;;;;;16.58;7.03;;;22.00;99.90;;;;;;5068407;28;20461;-66
2022/10/30 11:31:46;;;;;;;17.75;10.00;;;22.00;99.90;;;;;;5067174;28;20047;-66
2022/10/30 11:34:17;;;;;;;23.27;11.35;;;22.10;99.90;;;;;;5054122;28;20045;-66
2022/10/30 11:36:51;;;;;;;21.92;9.43;;;22.20;99.90;;;;;;5072480;28;20017;-67
2022/10/30 11:39:20;;;;;;;17.67;8.57;;;22.30;99.90;;;;;;5068289;28;20145;-66
2022/10/30 11:41:56;;;;;;;19.55;11.93;;;22.40;99.90;;;;;;5071819;28;20033;-66
2022/10/30 11:44:25;;;;;;;26.05;12.50;;;22.50;99.90;;;;;;5066170;28;20028;-66
2022/10/30 11:46:51;;;;;;;16.27;8.20;;;22.70;99.90;;;;;;5071029;28;20457;-66
2022/10/30 11:49:30;;;;;;;17.33;8.13;;;;;;;;;;5064734;28;20588;-66
2022/10/30 11:51:57;;;;;;;23.67;7.70;;;;;;;;;;5064602;28;20047;-66
2022/10/30 11:54:25;;;;;;;18.42;7.63;;;;;;;;;;5069818;28;20177;-66
2022/10/30 11:56:53;;;;;;;18.02;8.02;;;;;;;;;;5071775;28;20462;-66
2022/10/30 11:59:20;;;;;;;19.58;8.23;;;;;;;;;;5070069;28;20025;-66
2022/10/30 12:01:59;;;;;;;16.95;7.53;;;;;;;;;;5072626;28;20048;-67
2022/10/30 12:04:26;;;;;;;15.25;7.95;;;;;;;;;;5071697;28;20029;-67
2022/10/30 12:07:15;;;;;;;16.15;7.57;;;;;;;;;;5070473;28;20024;-66
2022/10/30 12:09:42;;;;;;;13.70;7.40;;;;;;;;;;5053053;28;20032;-66
2022/10/30 12:12:31;;;;;;;12.32;6.75;;;;;;;;;;5066531;28;20035;-66
2022/10/30 12:15:07;;;;;;;16.03;7.70;;;;;;;;;;5059824;28;20519;-66
2022/10/30 12:17:33;;;;;;;10.10;6.68;;;;;;;;;;5061468;28;20383;-66
2022/10/30 12:20:04;;;;;;;16.02;7.13;;;;;;;;;;5064065;28;20028;-66
2022/10/30 12:22:32;;;;;;;14.35;7.07;;;23.00;99.90;;;;;;5065187;28;20060;-66
2022/10/30 12:25:05;;;;;;;12.55;6.68;;;23.10;99.90;;;;;;5064114;28;20032;-66
2022/10/30 12:27:37;;;;;;;18.02;6.60;;;23.10;99.90;;;;;;5068693;28;20074;-66
2022/10/30 12:30:13;;;;;;;14.13;6.38;;;23.20;99.90;;;;;;5065103;28;20035;-67
2022/10/30 12:33:02;;;;;;;10.65;6.35;;;23.30;99.90;;;;;;5067240;28;20045;-66
2022/10/30 12:35:47;;;;;;;11.95;6.95;;;23.50;99.90;;;;;;5071433;28;20465;-67
2022/10/30 12:38:52;;;;;;;15.32;6.15;;;23.70;99.90;;;;;;5070189;28;20025;-67
2022/10/30 12:41:35;;;;;;;10.95;6.53;;;23.90;99.90;;;;;;5085198;28;20043;-67
2022/10/30 12:44:12;;;;;;;11.38;6.40;;;24.10;99.90;;;;;;5085039;28;20028;-67
2022/10/30 12:46:52;;;;;;;15.13;7.55;;;24.30;99.90;;;;;;5089713;28;20097;-67
2022/10/30 12:49:38;;;;;;;20.67;8.05;;;24.40;99.90;;;;;;5088847;28;20085;-67
2022/10/30 12:52:23;;;;;;;13.32;7.18;;;24.50;99.90;;;;;;5091201;28;20545;-67
2022/10/30 12:55:17;;;;;;;17.42;7.88;;;24.40;99.90;;;;;;5090377;28;20016;-67
2022/10/30 12:58:17;;;;;;;19.65;7.60;;;24.40;99.90;;;;;;5086054;28;20016;-67